Terminal Aerodrome Forecast
Issued by NWS San Angelo, TX

Home | Current Version | Previous Version | Text Only | Print | Product List | Glossary On
Versions: 1 2 3 4 5 6 7 8 9 10 11 12 13
670
FTUS44 KSJT 241725
TAFSJT
TAF
KSJT 241725Z 2418/2518 18014G20KT P6SM BKN040
     FM250000 16012G17KT P6SM VCTS BKN040CB
      TEMPO 2500/2502 3SM TSRA BKN040CB
     FM250200 15010KT 5SM SHRA VCTS OVC050CB
     FM251000 13005KT 5SM SHRA VCTS OVC015CB=

USA.gov is the U.S. government's official web portal to all federal, state and local government web resources and services.